createdAt,value
2019-01-19T00:00:33.836Z,0
2019-01-19T00:01:43.902Z,0
2019-01-19T00:02:53.705Z,0
2019-01-19T00:04:03.784Z,0
2019-01-19T00:05:20.160Z,0
2019-01-19T00:06:30.258Z,0
2019-01-19T00:07:40.340Z,0
2019-01-19T00:08:50.465Z,0
2019-01-19T00:10:00.753Z,0
2019-01-19T00:11:11.172Z,0
2019-01-19T00:12:20.970Z,0
2019-01-19T00:13:31.038Z,0
2019-01-19T00:14:41.109Z,0
2019-01-19T00:15:51.172Z,0
2019-01-19T00:17:01.383Z,0
2019-01-19T00:18:11.443Z,0
2019-01-19T00:19:21.490Z,0
2019-01-19T00:20:31.295Z,0
2019-01-19T00:21:41.370Z,0
2019-01-19T00:22:51.173Z,0
2019-01-19T00:24:01.244Z,0
2019-01-19T00:25:11.422Z,0
2019-01-19T00:26:21.501Z,0
2019-01-19T00:27:31.296Z,0
2019-01-19T00:28:41.146Z,0
2019-01-19T00:29:51.250Z,0
2019-01-19T00:31:01.594Z,0
2019-01-19T00:32:11.668Z,0
2019-01-19T00:33:21.494Z,0
2019-01-19T00:34:38.838Z,0
2019-01-19T00:35:48.945Z,0
2019-01-19T00:36:59.025Z,0
2019-01-19T00:38:09.102Z,0
2019-01-19T00:39:19.169Z,0
2019-01-19T00:40:29.298Z,0
2019-01-19T00:41:39.787Z,0
2019-01-19T00:42:49.880Z,0
2019-01-19T00:43:59.673Z,0
2019-01-19T00:45:09.788Z,0
2019-01-19T00:46:19.642Z,0
2019-01-19T00:47:29.701Z,0
2019-01-19T00:48:39.753Z,0
2019-01-19T00:49:49.809Z,0
2019-01-19T00:51:00.630Z,0
2019-01-19T00:52:10.695Z,0
2019-01-19T00:53:20.738Z,0
2019-01-19T00:54:30.792Z,0
2019-01-19T00:55:40.635Z,0
2019-01-19T00:56:50.453Z,0
2019-01-19T00:58:03.134Z,0
2019-01-19T00:59:13.345Z,0
2019-01-19T01:00:23.913Z,0
2019-01-19T01:01:33.988Z,0
2019-01-19T01:02:44.055Z,0
2019-01-19T01:03:54.134Z,0
2019-01-19T01:05:04.490Z,0
2019-01-19T01:06:14.542Z,0
2019-01-19T01:07:24.650Z,0
2019-01-19T01:08:34.721Z,0
2019-01-19T01:09:44.595Z,0
2019-01-19T01:10:54.669Z,0
2019-01-19T01:12:04.738Z,0
2019-01-19T01:13:15.037Z,0
2019-01-19T01:14:25.108Z,0
2019-01-19T01:15:35.178Z,0
2019-01-19T01:16:45.235Z,0
2019-01-19T01:17:55.297Z,0
2019-01-19T01:19:05.347Z,0
2019-01-19T01:20:15.653Z,0
2019-01-19T01:21:25.821Z,0
2019-01-19T01:22:35.877Z,0
2019-01-19T01:23:45.924Z,0
2019-01-19T01:24:55.967Z,0
2019-01-19T01:26:05.755Z,0
2019-01-19T01:27:15.852Z,0
2019-01-19T01:28:25.911Z,0
2019-01-19T01:29:35.974Z,0
2019-01-19T01:30:46.088Z,0
2019-01-19T01:31:56.151Z,0
2019-01-19T01:33:06.302Z,0
2019-01-19T01:34:16.369Z,0
2019-01-19T01:35:32.544Z,0
2019-01-19T01:36:42.840Z,0
2019-01-19T01:37:53.078Z,0
2019-01-19T01:39:03.908Z,0
2019-01-19T01:40:13.970Z,0
2019-01-19T01:41:23.803Z,0
2019-01-19T01:42:33.851Z,0
2019-01-19T01:43:43.907Z,0
2019-01-19T01:44:54.192Z,0
2019-01-19T01:46:05.137Z,0
2019-01-19T01:47:15.209Z,0
2019-01-19T01:48:25.070Z,0
2019-01-19T01:49:35.126Z,0
2019-01-19T01:50:45.176Z,0
2019-01-19T01:51:55.238Z,0
2019-01-19T01:53:05.355Z,0
2019-01-19T01:54:15.413Z,0
2019-01-19T01:55:25.211Z,0
2019-01-19T01:56:35.318Z,0
2019-01-19T01:57:45.412Z,0
2019-01-19T01:58:55.459Z,0
2019-01-19T02:00:08.303Z,0
2019-01-19T02:01:18.356Z,0
2019-01-19T02:02:28.431Z,0
2019-01-19T02:03:38.735Z,0
2019-01-19T02:04:48.815Z,0
2019-01-19T02:05:58.914Z,0
2019-01-19T02:07:08.983Z,0
2019-01-19T02:08:18.782Z,0
2019-01-19T02:09:28.838Z,0
2019-01-19T02:10:39.229Z,0
2019-01-19T02:11:49.302Z,0
2019-01-19T02:12:59.366Z,0
2019-01-19T02:14:09.777Z,0
2019-01-19T02:15:19.854Z,0
2019-01-19T02:16:29.921Z,0
2019-01-19T02:17:39.966Z,0
2019-01-19T02:18:50.271Z,0
2019-01-19T02:20:01.334Z,0
2019-01-19T02:21:11.139Z,0
2019-01-19T02:22:20.960Z,0
2019-01-19T02:23:31.005Z,0
2019-01-19T02:24:41.115Z,0
2019-01-19T02:25:51.162Z,0
2019-01-19T02:27:00.990Z,0
2019-01-19T02:28:11.285Z,0
2019-01-19T02:29:21.382Z,0
2019-01-19T02:30:31.580Z,0
2019-01-19T02:31:41.921Z,0
2019-01-19T02:32:51.778Z,0
2019-01-19T02:34:01.937Z,0
2019-01-19T02:35:12.066Z,0
2019-01-19T02:36:22.523Z,0
2019-01-19T02:37:32.754Z,0
2019-01-19T02:38:42.936Z,0
2019-01-19T02:39:53.004Z,0
2019-01-19T02:41:03.079Z,0
2019-01-19T02:42:13.192Z,0
2019-01-19T02:43:23.498Z,0
2019-01-19T02:44:33.569Z,0
2019-01-19T02:45:43.650Z,0
2019-01-19T02:46:53.699Z,0
2019-01-19T02:48:04.348Z,0
2019-01-19T02:49:14.528Z,0
2019-01-19T02:50:24.575Z,0
2019-01-19T02:51:34.662Z,0
2019-01-19T02:52:44.726Z,0
2019-01-19T02:53:54.807Z,0
2019-01-19T02:55:06.152Z,0
2019-01-19T02:56:16.941Z,0
2019-01-19T02:57:27.050Z,0
2019-01-19T02:58:37.202Z,0
2019-01-19T02:59:47.258Z,0
2019-01-19T03:00:57.338Z,0
2019-01-19T03:02:08.669Z,0
2019-01-19T03:03:18.506Z,0
2019-01-19T03:35:08.158Z,0
2019-01-19T03:36:18.214Z,0
2019-01-19T03:37:28.271Z,0
2019-01-19T03:38:38.354Z,0
2019-01-19T03:39:48.699Z,0
2019-01-19T03:40:59.065Z,0
2019-01-19T03:42:09.126Z,0
2019-01-19T03:43:19.179Z,0
2019-01-19T03:44:29.241Z,0
2019-01-19T03:45:39.312Z,0
2019-01-19T03:46:49.382Z,0
2019-01-19T03:47:59.168Z,0
2019-01-19T03:49:09.223Z,0
2019-01-19T03:50:19.276Z,0
2019-01-19T03:51:29.114Z,0
2019-01-19T03:52:39.171Z,0
2019-01-19T03:53:49.446Z,0
2019-01-19T03:54:59.597Z,0
2019-01-19T03:56:08.902Z,0
2019-01-19T03:57:19.210Z,0
2019-01-19T03:58:29.296Z,0
2019-01-19T03:59:39.441Z,0
2019-01-19T04:00:49.633Z,0
2019-01-19T04:01:59.446Z,0
2019-01-19T04:03:09.317Z,0
2019-01-19T04:04:19.254Z,0
2019-01-19T04:05:29.327Z,0
2019-01-19T04:06:39.382Z,0
2019-01-19T04:07:49.282Z,0
2019-01-19T04:08:59.092Z,0
2019-01-19T04:10:09.126Z,0
2019-01-19T04:11:19.266Z,0
2019-01-19T04:12:29.336Z,0
2019-01-19T04:13:39.401Z,0
2019-01-19T04:14:49.460Z,0
2019-01-19T04:15:59.621Z,0
2019-01-19T04:17:09.683Z,0
2019-01-19T04:18:19.730Z,0
2019-01-19T04:19:29.545Z,0
2019-01-19T04:20:39.628Z,0
2019-01-19T04:21:49.450Z,0
2019-01-19T04:22:59.010Z,0
2019-01-19T04:24:09.063Z,0
2019-01-19T04:25:19.091Z,0
2019-01-19T04:26:29.151Z,0
2019-01-19T04:27:39.221Z,0
2019-01-19T04:28:49.286Z,0
2019-01-19T04:29:59.347Z,0
2019-01-19T04:31:09.596Z,0
2019-01-19T04:32:19.404Z,0
2019-01-19T04:33:29.362Z,0
2019-01-19T04:34:39.166Z,0
2019-01-19T04:35:49.240Z,0
2019-01-19T04:36:59.369Z,0
2019-01-19T04:38:09.423Z,0
2019-01-19T04:39:19.499Z,0
2019-01-19T04:40:29.549Z,0
2019-01-19T04:41:39.823Z,0
2019-01-19T04:42:49.908Z,0
2019-01-19T04:43:59.973Z,0
2019-01-19T04:45:10.169Z,0
2019-01-19T04:46:20.241Z,0
2019-01-19T04:47:30.291Z,0
2019-01-19T04:48:39.874Z,0
2019-01-19T04:49:49.937Z,0
2019-01-19T04:50:59.991Z,0
2019-01-19T04:52:11.370Z,0
2019-01-19T04:53:21.175Z,0
2019-01-19T04:54:31.243Z,0
2019-01-19T04:55:41.297Z,0
2019-01-19T04:56:51.357Z,0
2019-01-19T04:58:01.401Z,0
2019-01-19T04:59:11.457Z,0
2019-01-19T05:00:23.092Z,0
2019-01-19T05:01:33.197Z,0
2019-01-19T05:02:43.020Z,0
2019-01-19T05:03:53.083Z,0
2019-01-19T05:05:03.156Z,0
2019-01-19T05:06:30.190Z,0
2019-01-19T05:07:40.701Z,0
2019-01-19T05:08:50.799Z,0
2019-01-19T05:10:02.246Z,0
2019-01-19T05:11:12.510Z,0
2019-01-19T05:12:22.296Z,0
2019-01-19T05:13:31.896Z,0
2019-01-19T05:14:42.268Z,0
2019-01-19T05:15:52.080Z,0
2019-01-19T05:17:01.880Z,0
2019-01-19T05:18:12.578Z,0
2019-01-19T05:19:21.915Z,0
2019-01-19T05:20:31.720Z,0
2019-01-19T05:21:41.770Z,0
2019-01-19T05:22:51.837Z,0
2019-01-19T05:24:01.892Z,0
2019-01-19T05:25:12.020Z,0
2019-01-19T05:26:22.088Z,0
2019-01-19T05:27:32.376Z,0
2019-01-19T05:28:42.449Z,0
2019-01-19T05:29:52.506Z,0
2019-01-19T05:31:04.310Z,0
2019-01-19T05:32:14.132Z,0
2019-01-19T05:33:24.200Z,0
2019-01-19T05:34:34.249Z,0
2019-01-19T05:35:44.337Z,0
2019-01-19T05:36:54.633Z,0
2019-01-19T05:38:06.850Z,0
2019-01-19T05:39:17.166Z,0
2019-01-19T05:40:26.732Z,0
2019-01-19T05:41:36.597Z,0
2019-01-19T05:42:46.939Z,0
2019-01-19T05:43:56.739Z,0
2019-01-19T05:45:06.791Z,0
2019-01-19T05:46:23.896Z,0
2019-01-19T05:47:34.007Z,0
2019-01-19T05:48:44.411Z,0
2019-01-19T05:49:54.509Z,0
2019-01-19T05:51:04.318Z,0
2019-01-19T05:52:14.164Z,0
2019-01-19T05:53:23.973Z,0
2019-01-19T05:54:34.081Z,0
2019-01-19T05:55:44.085Z,0
2019-01-19T05:56:54.138Z,0
2019-01-19T05:58:05.031Z,0
2019-01-19T05:59:15.092Z,0
2019-01-19T06:00:25.772Z,0
2019-01-19T06:01:35.904Z,0
2019-01-19T06:02:45.719Z,0
2019-01-19T06:03:55.827Z,0
2019-01-19T06:05:07.269Z,0
2019-01-19T06:06:17.332Z,0
2019-01-19T06:07:27.176Z,0
2019-01-19T06:08:37.301Z,0
2019-01-19T06:09:47.561Z,0
2019-01-19T06:10:57.367Z,0
2019-01-19T06:12:07.157Z,0
2019-01-19T06:13:17.212Z,0
2019-01-19T06:14:27.012Z,0
2019-01-19T06:15:37.073Z,0
2019-01-19T06:16:47.170Z,0
2019-01-19T06:17:57.379Z,0
2019-01-19T06:19:07.609Z,0
2019-01-19T06:20:17.413Z,0
2019-01-19T06:21:28.384Z,0
2019-01-19T06:22:38.441Z,0
2019-01-19T06:23:48.643Z,0
2019-01-19T06:24:58.720Z,0
2019-01-19T06:26:08.774Z,0
2019-01-19T06:27:18.838Z,0
2019-01-19T06:28:28.980Z,0
2019-01-19T06:29:39.581Z,0
2019-01-19T06:30:49.965Z,0
2019-01-19T06:32:01.006Z,0
2019-01-19T06:33:12.384Z,0
2019-01-19T06:34:22.452Z,0
2019-01-19T06:35:32.536Z,0
2019-01-19T06:36:42.607Z,0
2019-01-19T06:37:52.694Z,5
2019-01-19T06:39:03.453Z,5
2019-01-19T06:40:13.294Z,5
2019-01-19T06:41:23.348Z,5
2019-01-19T06:42:33.433Z,5
2019-01-19T06:43:43.051Z,5
2019-01-19T06:44:53.964Z,5
2019-01-19T06:46:04.208Z,5
2019-01-19T06:47:14.065Z,5
2019-01-19T06:48:23.860Z,10
2019-01-19T06:49:33.965Z,10
2019-01-19T06:50:44.314Z,10
2019-01-19T06:51:54.168Z,10
2019-01-19T06:53:04.549Z,15
2019-01-19T06:54:14.597Z,15
2019-01-19T06:55:24.666Z,15
2019-01-19T06:56:34.494Z,15
2019-01-19T06:57:44.290Z,20
2019-01-19T06:58:54.416Z,20
2019-01-19T07:00:04.835Z,20
2019-01-19T07:01:14.649Z,20
2019-01-19T07:02:24.719Z,20
2019-01-19T07:03:34.888Z,20
2019-01-19T07:04:44.953Z,25
2019-01-19T07:05:55.003Z,25
2019-01-19T07:07:11.989Z,25
2019-01-19T07:08:22.839Z,30
2019-01-19T07:09:32.891Z,30
2019-01-19T07:10:43.006Z,30
2019-01-19T07:11:53.096Z,30
2019-01-19T07:13:03.865Z,30
2019-01-19T07:14:13.673Z,30
2019-01-19T07:15:23.482Z,30
2019-01-19T07:16:33.671Z,35
2019-01-19T07:17:43.724Z,35
2019-01-19T07:18:53.786Z,35
2019-01-19T07:20:04.042Z,35
2019-01-19T07:21:14.078Z,35
2019-01-19T07:22:24.230Z,35
2019-01-19T07:23:34.307Z,35
2019-01-19T07:24:44.106Z,35
2019-01-19T07:25:55.502Z,35
2019-01-19T07:27:05.719Z,35
2019-01-19T07:28:15.805Z,40
2019-01-19T07:29:25.614Z,40
2019-01-19T07:30:35.712Z,40
2019-01-19T07:31:45.780Z,40
2019-01-19T07:32:56.149Z,40
2019-01-19T07:34:06.250Z,40
2019-01-19T07:35:16.318Z,45
2019-01-19T07:36:26.396Z,45
2019-01-19T07:37:36.448Z,45
2019-01-19T07:38:46.527Z,45
2019-01-19T07:39:56.594Z,45
2019-01-19T07:41:06.413Z,45
2019-01-19T07:42:16.211Z,50
2019-01-19T07:43:26.277Z,50
2019-01-19T07:44:36.342Z,55
2019-01-19T07:45:46.463Z,55
2019-01-19T07:47:03.969Z,60
2019-01-19T07:48:14.009Z,60
2019-01-19T07:49:24.083Z,60
2019-01-19T07:50:34.192Z,60
2019-01-19T07:51:44.489Z,65
2019-01-19T07:52:54.550Z,65
2019-01-19T07:54:04.390Z,65
2019-01-19T07:55:14.448Z,70
2019-01-19T07:56:24.905Z,70
2019-01-19T07:57:41.282Z,70
2019-01-19T07:58:51.344Z,75
2019-01-19T08:00:01.607Z,75
2019-01-19T08:01:11.664Z,70
2019-01-19T08:02:21.864Z,70
2019-01-19T08:03:31.665Z,75
2019-01-19T08:04:41.961Z,75
2019-01-19T08:05:52.022Z,75
2019-01-19T08:07:03.232Z,75
2019-01-19T08:08:13.298Z,75
2019-01-19T08:09:23.391Z,75
2019-01-19T08:10:33.436Z,75
2019-01-19T08:11:43.505Z,75
2019-01-19T08:12:53.669Z,75
2019-01-19T08:14:03.466Z,75
2019-01-19T08:15:13.514Z,75
2019-01-19T08:16:23.581Z,75
2019-01-19T08:17:33.840Z,75
2019-01-19T08:18:43.902Z,75
2019-01-19T08:19:53.971Z,75
2019-01-19T08:21:04.090Z,75
2019-01-19T08:22:14.193Z,80
2019-01-19T08:23:24.369Z,80
2019-01-19T08:24:34.682Z,85
2019-01-19T08:25:44.476Z,80
2019-01-19T08:26:54.553Z,80
2019-01-19T08:28:06.187Z,85
2019-01-19T08:29:16.276Z,90
2019-01-19T08:30:26.369Z,90
2019-01-19T08:31:36.508Z,90
2019-01-19T08:32:46.561Z,95
2019-01-19T08:33:58.220Z,95
2019-01-19T08:35:08.339Z,95
2019-01-19T08:36:18.404Z,95
2019-01-19T08:37:35.081Z,95
2019-01-19T08:38:45.204Z,100
2019-01-19T08:39:55.517Z,95
2019-01-19T08:41:05.993Z,95
2019-01-19T08:42:16.067Z,95
2019-01-19T08:43:26.162Z,95
2019-01-19T08:44:36.221Z,105
2019-01-19T08:45:46.029Z,110
2019-01-19T08:46:55.843Z,130
2019-01-19T08:48:05.941Z,130
2019-01-19T08:49:16.025Z,130
2019-01-19T08:50:26.390Z,130
2019-01-19T08:51:36.468Z,125
2019-01-19T08:52:46.553Z,110
2019-01-19T08:53:57.475Z,115
2019-01-19T08:55:07.821Z,125
2019-01-19T08:56:17.964Z,125
2019-01-19T08:57:27.791Z,125
2019-01-19T08:58:37.597Z,125
2019-01-19T08:59:47.757Z,120
2019-01-19T09:00:57.677Z,120
2019-01-19T09:02:07.606Z,130
2019-01-19T09:03:17.396Z,135
2019-01-19T09:04:27.682Z,125
2019-01-19T09:05:37.789Z,120
2019-01-19T09:06:47.889Z,115
2019-01-19T09:07:57.963Z,105
2019-01-19T09:09:08.364Z,105
2019-01-19T09:10:18.464Z,110
2019-01-19T09:11:28.646Z,110
2019-01-19T09:12:38.823Z,110
2019-01-19T09:13:48.962Z,110
2019-01-19T09:14:59.042Z,110
2019-01-19T09:16:09.110Z,120
2019-01-19T09:17:19.026Z,120
2019-01-19T09:18:29.207Z,120
2019-01-19T09:19:39.798Z,115
2019-01-19T09:20:49.877Z,110
2019-01-19T09:21:59.941Z,110
2019-01-19T09:23:09.774Z,110
2019-01-19T09:24:19.855Z,115
2019-01-19T09:25:29.984Z,125
2019-01-19T09:26:40.119Z,125
2019-01-19T09:27:50.237Z,125
2019-01-19T09:29:01.703Z,125
2019-01-19T09:30:11.837Z,130
2019-01-19T09:31:21.978Z,140
2019-01-19T09:32:31.818Z,135
2019-01-19T09:33:41.884Z,145
2019-01-19T09:34:51.963Z,140
2019-01-19T09:36:02.041Z,140
2019-01-19T09:37:11.724Z,135
2019-01-19T09:38:22.053Z,135
2019-01-19T09:39:32.347Z,130
2019-01-19T09:40:42.405Z,135
2019-01-19T09:41:52.483Z,130
2019-01-19T09:43:18.281Z,135
2019-01-19T09:44:28.446Z,130
2019-01-19T09:45:39.897Z,125
2019-01-19T09:46:50.020Z,125
2019-01-19T09:48:00.088Z,125
2019-01-19T09:49:10.229Z,125
2019-01-19T09:50:20.291Z,125
2019-01-19T09:51:29.845Z,125
2019-01-19T09:52:39.957Z,130
2019-01-19T09:53:49.769Z,130
2019-01-19T09:54:59.818Z,130
2019-01-19T09:56:09.986Z,135
2019-01-19T09:57:19.856Z,135
2019-01-19T09:58:29.663Z,135
2019-01-19T09:59:39.740Z,135
2019-01-19T10:00:55.545Z,135
2019-01-19T10:02:05.674Z,135
2019-01-19T10:03:16.453Z,130
2019-01-19T10:04:26.525Z,130
2019-01-19T10:05:36.580Z,130
2019-01-19T10:06:48.179Z,130
2019-01-19T10:08:11.032Z,130
2019-01-19T10:09:21.141Z,130
2019-01-19T10:10:31.262Z,130
2019-01-19T10:11:41.142Z,135
2019-01-19T10:12:50.945Z,130
2019-01-19T10:14:01.318Z,130
2019-01-19T10:15:11.144Z,135
2019-01-19T10:16:21.299Z,140
2019-01-19T10:17:31.349Z,140
2019-01-19T10:18:41.473Z,140
2019-01-19T10:19:53.261Z,140
2019-01-19T10:21:03.409Z,140
2019-01-19T10:22:13.520Z,145
2019-01-19T10:23:23.609Z,145
2019-01-19T10:24:33.765Z,150
2019-01-19T10:25:43.956Z,155
2019-01-19T10:26:54.018Z,155
2019-01-19T10:28:04.650Z,160
2019-01-19T10:29:14.766Z,160
2019-01-19T10:30:25.010Z,160
2019-01-19T10:31:35.169Z,160
2019-01-19T10:32:45.304Z,160
2019-01-19T10:33:55.394Z,160
2019-01-19T10:35:05.506Z,165
2019-01-19T10:36:15.705Z,170
2019-01-19T10:37:25.768Z,175
2019-01-19T10:38:35.856Z,150
2019-01-19T10:39:45.943Z,165
2019-01-19T10:40:56.022Z,165
2019-01-19T10:42:05.925Z,155
2019-01-19T10:43:15.997Z,155
2019-01-19T10:44:25.825Z,145
2019-01-19T10:45:35.635Z,155
2019-01-19T10:46:45.716Z,135
2019-01-19T10:47:57.379Z,130
2019-01-19T10:49:07.262Z,130
2019-01-19T10:50:17.102Z,130
2019-01-19T10:51:27.174Z,130
2019-01-19T10:52:37.261Z,130
2019-01-19T10:53:47.334Z,125
2019-01-19T10:54:57.174Z,125
2019-01-19T10:56:07.333Z,125
2019-01-19T10:57:17.174Z,125
2019-01-19T10:58:27.261Z,130
2019-01-19T10:59:37.077Z,130
2019-01-19T11:00:47.203Z,125
2019-01-19T11:01:57.284Z,125
2019-01-19T11:03:07.090Z,125
2019-01-19T11:04:17.542Z,125
2019-01-19T11:05:27.618Z,125
2019-01-19T11:06:37.673Z,125
2019-01-19T11:07:47.751Z,130
2019-01-19T11:08:57.816Z,130
2019-01-19T11:10:10.380Z,130
2019-01-19T11:11:20.543Z,130
2019-01-19T11:12:30.373Z,130
2019-01-19T11:13:40.443Z,130
2019-01-19T11:14:50.799Z,130
2019-01-19T11:16:00.614Z,130
2019-01-19T11:17:10.453Z,130
2019-01-19T11:18:20.443Z,125
2019-01-19T11:19:30.264Z,125
2019-01-19T11:20:40.440Z,125
2019-01-19T11:21:50.750Z,125
2019-01-19T11:23:00.963Z,120
2019-01-19T11:24:11.180Z,120
2019-01-19T11:25:21.250Z,120
2019-01-19T11:26:31.048Z,120
2019-01-19T11:27:41.223Z,120
2019-01-19T11:28:52.276Z,120
2019-01-19T11:30:02.576Z,115
2019-01-19T11:31:12.902Z,115
2019-01-19T11:32:22.995Z,115
2019-01-19T11:33:33.075Z,115
2019-01-19T11:34:43.194Z,115
2019-01-19T11:35:53.033Z,115
2019-01-19T11:37:02.870Z,115
2019-01-19T11:38:24.998Z,110
2019-01-19T11:39:35.128Z,110
2019-01-19T11:40:45.222Z,110
2019-01-19T11:41:55.087Z,105
2019-01-19T11:43:08.052Z,105
2019-01-19T11:44:18.120Z,105
2019-01-19T11:45:28.218Z,105
2019-01-19T11:46:38.323Z,105
2019-01-19T11:47:48.413Z,110
2019-01-19T11:48:58.523Z,105
2019-01-19T11:50:08.682Z,110
2019-01-19T11:51:18.778Z,110
2019-01-19T11:52:28.617Z,110
2019-01-19T11:53:38.708Z,110
2019-01-19T11:54:48.832Z,110
2019-01-19T11:55:59.153Z,105
2019-01-19T11:57:10.327Z,105
2019-01-19T11:58:20.134Z,105
2019-01-19T11:59:30.242Z,105
2019-01-19T12:00:40.321Z,110
2019-01-19T12:01:50.149Z,105
2019-01-19T12:03:01.592Z,105
2019-01-19T12:04:11.412Z,105
2019-01-19T12:05:21.494Z,100
2019-01-19T12:06:31.647Z,100
2019-01-19T12:07:41.721Z,100
2019-01-19T12:08:51.890Z,95
2019-01-19T12:10:02.031Z,95
2019-01-19T12:11:11.839Z,95
2019-01-19T12:12:21.925Z,90
2019-01-19T12:13:31.987Z,90
2019-01-19T12:14:42.059Z,90
2019-01-19T12:15:52.159Z,90
2019-01-19T12:17:02.248Z,90
2019-01-19T12:18:13.466Z,90
2019-01-19T12:19:23.638Z,85
2019-01-19T12:20:33.702Z,85
2019-01-19T12:21:43.522Z,85
2019-01-19T12:22:53.326Z,80
2019-01-19T12:24:03.192Z,80
2019-01-19T12:25:13.558Z,80
2019-01-19T12:26:23.634Z,80
2019-01-19T12:27:33.758Z,80
2019-01-19T12:28:43.305Z,80
2019-01-19T12:29:53.108Z,80
2019-01-19T12:31:02.961Z,80
2019-01-19T12:32:13.280Z,80
2019-01-19T12:33:23.374Z,80
2019-01-19T12:34:33.470Z,80
2019-01-19T12:35:43.587Z,75
2019-01-19T12:36:53.665Z,75
2019-01-19T12:38:03.730Z,75
2019-01-19T12:39:13.846Z,75
2019-01-19T12:40:23.929Z,75
2019-01-19T12:41:33.977Z,75
2019-01-19T12:42:44.061Z,75
2019-01-19T12:43:54.155Z,75
2019-01-19T12:45:04.627Z,80
2019-01-19T12:46:14.900Z,75
2019-01-19T12:47:24.951Z,75
2019-01-19T12:48:35.132Z,75
2019-01-19T12:49:45.605Z,70
2019-01-19T12:50:55.696Z,70
2019-01-19T12:52:05.746Z,70
2019-01-19T12:53:16.023Z,70
2019-01-19T12:54:26.173Z,70
2019-01-19T12:55:36.010Z,70
2019-01-19T12:56:46.077Z,70
2019-01-19T12:57:56.278Z,70
2019-01-19T12:59:07.109Z,70
2019-01-19T13:00:17.640Z,70
2019-01-19T13:01:27.498Z,70
2019-01-19T13:02:37.628Z,70
2019-01-19T13:03:47.698Z,70
2019-01-19T13:04:57.488Z,75
2019-01-19T13:06:08.308Z,75
2019-01-19T13:07:18.358Z,75
2019-01-19T13:08:34.284Z,70
2019-01-19T13:09:44.729Z,70
2019-01-19T13:10:54.545Z,70
2019-01-19T13:12:04.617Z,70
2019-01-19T13:13:14.952Z,70
2019-01-19T13:14:24.811Z,70
2019-01-19T13:15:34.902Z,70
2019-01-19T13:16:44.738Z,70
2019-01-19T13:17:54.631Z,70
2019-01-19T13:19:04.431Z,70
2019-01-19T13:20:14.540Z,70
2019-01-19T13:21:24.351Z,70
2019-01-19T13:22:34.418Z,70
2019-01-19T13:23:50.078Z,70
2019-01-19T13:25:00.260Z,70
2019-01-19T13:26:10.473Z,65
2019-01-19T13:27:20.594Z,65
2019-01-19T13:28:30.669Z,65
2019-01-19T13:29:40.759Z,65
2019-01-19T13:30:50.934Z,60
2019-01-19T13:32:02.748Z,60
2019-01-19T13:33:12.898Z,60
2019-01-19T13:34:22.963Z,60
2019-01-19T13:35:32.811Z,60
2019-01-19T13:36:42.915Z,55
2019-01-19T13:37:53.027Z,55
2019-01-19T13:39:03.180Z,55
2019-01-19T13:40:12.976Z,55
2019-01-19T13:41:23.134Z,60
2019-01-19T13:42:33.188Z,55
2019-01-19T13:43:43.254Z,55
2019-01-19T13:44:53.049Z,50
2019-01-19T13:46:03.103Z,50
2019-01-19T13:47:12.930Z,50
2019-01-19T13:48:23.020Z,45
2019-01-19T13:49:32.816Z,45
2019-01-19T13:50:42.696Z,40
2019-01-19T13:51:52.755Z,40
2019-01-19T13:53:06.184Z,40
2019-01-19T13:54:16.619Z,40
2019-01-19T13:55:26.966Z,40
2019-01-19T13:56:37.002Z,40
2019-01-19T13:57:46.941Z,35
2019-01-19T13:58:56.963Z,35
2019-01-19T14:00:07.034Z,35
2019-01-19T14:01:17.120Z,35
2019-01-19T14:02:27.025Z,30
2019-01-19T14:03:37.067Z,30
2019-01-19T14:04:46.895Z,30
2019-01-19T14:05:57.037Z,30
2019-01-19T14:07:07.103Z,30
2019-01-19T14:08:17.168Z,30
2019-01-19T14:09:27.236Z,30
2019-01-19T14:10:37.285Z,30
2019-01-19T14:11:47.437Z,30
2019-01-19T14:12:57.579Z,30
2019-01-19T14:14:07.901Z,30
2019-01-19T14:15:17.965Z,25
2019-01-19T14:16:28.034Z,25
2019-01-19T14:17:37.743Z,25
2019-01-19T14:18:47.834Z,25
2019-01-19T14:19:57.913Z,25
2019-01-19T14:21:07.984Z,25
2019-01-19T14:22:17.782Z,20
2019-01-19T14:23:27.833Z,20
2019-01-19T14:24:37.996Z,20
2019-01-19T14:25:48.091Z,20
2019-01-19T14:26:58.148Z,20
2019-01-19T14:28:07.975Z,20
2019-01-19T14:29:17.849Z,15
2019-01-19T14:30:27.927Z,15
2019-01-19T14:31:38.007Z,15
2019-01-19T14:32:48.111Z,15
2019-01-19T14:33:58.171Z,15
2019-01-19T14:35:08.292Z,15
2019-01-19T14:36:18.806Z,15
2019-01-19T14:37:29.064Z,15
2019-01-19T14:38:38.882Z,15
2019-01-19T14:39:48.972Z,15
2019-01-19T14:40:59.078Z,15
2019-01-19T14:42:09.140Z,15
2019-01-19T14:43:19.228Z,15
2019-01-19T14:44:29.301Z,15
2019-01-19T14:45:39.385Z,15
2019-01-19T14:46:49.572Z,15
2019-01-19T14:47:59.652Z,15
2019-01-19T14:49:09.730Z,15
2019-01-19T14:50:19.795Z,15
2019-01-19T14:51:29.627Z,10
2019-01-19T14:52:39.881Z,10
2019-01-19T14:53:50.009Z,10
2019-01-19T14:55:01.319Z,10
2019-01-19T14:56:11.482Z,10
2019-01-19T14:57:21.358Z,10
2019-01-19T14:58:31.661Z,10
2019-01-19T14:59:41.199Z,10
2019-01-19T15:00:51.287Z,10
2019-01-19T15:02:01.240Z,5
2019-01-19T15:03:12.516Z,5
2019-01-19T15:04:22.606Z,5
2019-01-19T15:05:32.667Z,5
2019-01-19T15:06:42.751Z,5
2019-01-19T15:07:52.939Z,5
2019-01-19T15:09:08.743Z,5
2019-01-19T15:10:18.932Z,5
2019-01-19T15:11:28.751Z,5
2019-01-19T15:12:38.816Z,5
2019-01-19T15:13:48.614Z,5
2019-01-19T15:14:58.738Z,5
2019-01-19T15:16:08.826Z,5
2019-01-19T15:17:18.690Z,5
2019-01-19T15:18:28.865Z,0
2019-01-19T15:19:38.933Z,0
2019-01-19T15:20:49.023Z,0
2019-01-19T15:21:59.161Z,0
2019-01-19T15:23:09.261Z,0
2019-01-19T15:24:19.354Z,0
2019-01-19T15:25:28.903Z,0
2019-01-19T15:26:38.787Z,0
2019-01-19T15:27:49.093Z,0
2019-01-19T15:28:59.179Z,0
2019-01-19T15:30:09.242Z,0
2019-01-19T15:31:19.107Z,0
2019-01-19T15:32:29.177Z,0
2019-01-19T15:33:39.268Z,0
2019-01-19T15:34:49.337Z,0
2019-01-19T15:35:59.482Z,0
2019-01-19T15:37:10.017Z,0
2019-01-19T15:38:20.145Z,0
2019-01-19T15:39:29.975Z,0
2019-01-19T15:40:40.062Z,0
2019-01-19T15:41:50.136Z,0
2019-01-19T15:43:00.265Z,0
2019-01-19T15:44:10.354Z,0
2019-01-19T15:45:20.427Z,0
2019-01-19T15:46:30.501Z,0
2019-01-19T15:47:40.578Z,0
2019-01-19T15:48:50.723Z,0
2019-01-19T15:50:00.547Z,0
2019-01-19T15:51:10.701Z,0
2019-01-19T15:52:20.766Z,0
2019-01-19T15:53:30.855Z,0
2019-01-19T15:54:40.672Z,0
2019-01-19T15:55:50.983Z,0
2019-01-19T15:57:01.139Z,0
2019-01-19T15:58:13.061Z,0
2019-01-19T15:59:22.881Z,0
2019-01-19T16:00:32.696Z,0
2019-01-19T16:01:42.560Z,0
2019-01-19T16:02:52.693Z,0
2019-01-19T16:04:02.938Z,0
2019-01-19T16:05:12.980Z,0
2019-01-19T16:06:23.062Z,0
2019-01-19T16:07:32.873Z,0
2019-01-19T16:08:43.224Z,0
2019-01-19T16:09:53.345Z,0
2019-01-19T16:11:03.437Z,0
2019-01-19T16:12:13.492Z,0
2019-01-19T16:13:23.511Z,0
2019-01-19T16:14:33.570Z,0
2019-01-19T16:15:43.650Z,0
2019-01-19T16:16:53.716Z,0
2019-01-19T16:18:03.772Z,0
2019-01-19T16:19:13.837Z,0
2019-01-19T16:20:24.168Z,0
2019-01-19T16:21:34.248Z,0
2019-01-19T16:22:44.318Z,0
2019-01-19T16:23:54.417Z,0
2019-01-19T16:25:05.492Z,0
2019-01-19T16:26:15.324Z,0
2019-01-19T16:27:25.204Z,0
2019-01-19T16:28:35.030Z,0
2019-01-19T16:29:44.850Z,0
2019-01-19T16:30:54.924Z,0
2019-01-19T16:32:12.707Z,0
2019-01-19T16:33:22.807Z,0
2019-01-19T16:34:32.871Z,0
2019-01-19T16:35:42.935Z,0
2019-01-19T16:36:53.042Z,0
2019-01-19T16:38:05.505Z,0
2019-01-19T16:39:15.394Z,0
2019-01-19T16:40:25.492Z,0
2019-01-19T16:41:35.588Z,0
2019-01-19T16:42:46.385Z,0
2019-01-19T16:43:56.559Z,0
2019-01-19T16:45:07.145Z,0
2019-01-19T16:46:17.011Z,0
2019-01-19T16:47:27.069Z,0
2019-01-19T16:48:37.142Z,0
2019-01-19T16:49:47.359Z,0
2019-01-19T16:50:57.421Z,0
2019-01-19T16:52:07.644Z,0
2019-01-19T16:53:17.741Z,0
2019-01-19T16:54:27.835Z,0
2019-01-19T16:55:38.025Z,0
2019-01-19T16:56:48.077Z,0
2019-01-19T16:57:58.152Z,0
2019-01-19T16:59:08.226Z,0
2019-01-19T17:00:19.049Z,0
2019-01-19T17:01:28.878Z,0
2019-01-19T17:02:38.966Z,0
2019-01-19T17:03:48.774Z,0
2019-01-19T17:04:58.834Z,0
2019-01-19T17:06:09.208Z,0
2019-01-19T17:07:19.400Z,0
2019-01-19T17:08:29.475Z,0
2019-01-19T17:09:42.923Z,0
2019-01-19T17:10:53.226Z,0
2019-01-19T17:12:03.058Z,0
2019-01-19T17:13:14.368Z,0
2019-01-19T17:14:24.724Z,0
2019-01-19T17:15:34.798Z,0
2019-01-19T17:16:44.934Z,0
2019-01-19T17:17:55.044Z,0
2019-01-19T17:19:07.279Z,0
2019-01-19T17:20:17.370Z,0
2019-01-19T17:21:27.239Z,0
2019-01-19T17:22:37.307Z,0
2019-01-19T17:23:47.363Z,0
2019-01-19T17:24:57.761Z,0